Reyes, Bolivia
Current Conditions -  °F | °C
As of 8:00 AM on Friday 24 Oct 2014 (Local Time) from SLSA Reporting Station
Smoke Smoke  
Wind Chill: 77°   Ceiling: 20000
Heat Index: 78°   Visibility: 3mi
Dew Point: 75°   Wind: 6mph
Humidity: 94%   Direction: 180°S
Pressure: 29.85"   Gusts: NA
Location:  14.31°S, 67.37°W
Report Text: SLSA 241200Z 18005KT 5000 FU FEW015 FEW023CB SCT080 BKN200 25/24 Q1011
Loading
Personal Weather Stations






























Interactive Weather Map
Tropical Storm Tracking
New forecast layout! Learn more

10-Day Weather Forecast

Advertisements
Track Severe Weather on mobile